Rechercher aéroport 
image banner adimage banner adimage banner ad
image banner ad

5CL6 - Edward Roybal Federal Bldg

Situé à Los Angeles, United States

ICAO - 5CL6, IATA -

Données fournies par Airmate  

Information générale

Coordonnées: N34°3'10" W118°14'20"
Élévation : 646 feet MSL.
Variation magnétique : 14° East
Voir autres Aéroports à California

Données opérationnelles

Special qualification required
Heure actuelle UTC:
Heure actuelle locale:
METAR: KHHR 292053Z 27010KT 10SM CLR 23/14 A2990 RMK AO2 SLP124 T02330144 58012
Voir NOTAMs / SUP AIP / TFR affectant cet aéroport [VIEW]
Fréquences de communication: [VIEW]

Pistes:

Coordonnées de l'aéroport

Adresse: Los Angeles United States

Vue satellite de 5CL6